sensor_id;sensor_type;location;lat;lon;timestamp;P1;durP1;ratioP1;P2;durP2;ratioP2
13592;SDS011;6867;50.998;4.250;2022-09-30T00:02:15;16.07;;;11.90;;
13592;SDS011;6867;50.998;4.250;2022-09-30T00:04:41;19.43;;;12.47;;
13592;SDS011;6867;50.998;4.250;2022-09-30T00:07:09;14.80;;;10.73;;
13592;SDS011;6867;50.998;4.250;2022-09-30T00:09:36;16.47;;;11.00;;
13592;SDS011;6867;50.998;4.250;2022-09-30T00:12:03;14.57;;;10.67;;
13592;SDS011;6867;50.998;4.250;2022-09-30T00:14:31;17.73;;;10.83;;
13592;SDS011;6867;50.998;4.250;2022-09-30T00:16:58;15.93;;;10.70;;
13592;SDS011;6867;50.998;4.250;2022-09-30T00:19:26;13.27;;;9.83;;
13592;SDS011;6867;50.998;4.250;2022-09-30T00:21:52;15.50;;;10.93;;
13592;SDS011;6867;50.998;4.250;2022-09-30T00:24:19;16.53;;;10.20;;
13592;SDS011;6867;50.998;4.250;2022-09-30T00:26:46;14.10;;;9.83;;
13592;SDS011;6867;50.998;4.250;2022-09-30T00:29:12;16.60;;;10.87;;
13592;SDS011;6867;50.998;4.250;2022-09-30T00:31:40;13.60;;;10.40;;
13592;SDS011;6867;50.998;4.250;2022-09-30T00:34:07;14.87;;;10.30;;
13592;SDS011;6867;50.998;4.250;2022-09-30T00:36:37;13.17;;;9.47;;
13592;SDS011;6867;50.998;4.250;2022-09-30T00:39:08;11.80;;;8.87;;
13592;SDS011;6867;50.998;4.250;2022-09-30T00:41:36;12.50;;;8.43;;
13592;SDS011;6867;50.998;4.250;2022-09-30T00:47:04;18.07;;;9.30;;
13592;SDS011;6867;50.998;4.250;2022-09-30T00:49:43;13.93;;;10.30;;
13592;SDS011;6867;50.998;4.250;2022-09-30T00:52:10;16.63;;;10.27;;
13592;SDS011;6867;50.998;4.250;2022-09-30T00:54:37;14.20;;;9.80;;
13592;SDS011;6867;50.998;4.250;2022-09-30T00:57:04;15.07;;;9.33;;
13592;SDS011;6867;50.998;4.250;2022-09-30T00:59:33;11.97;;;8.67;;
13592;SDS011;6867;50.998;4.250;2022-09-30T01:02:07;14.47;;;9.27;;
13592;SDS011;6867;50.998;4.250;2022-09-30T01:04:35;13.90;;;9.67;;
13592;SDS011;6867;50.998;4.250;2022-09-30T01:07:03;14.73;;;8.77;;
13592;SDS011;6867;50.998;4.250;2022-09-30T01:09:31;12.07;;;8.87;;
13592;SDS011;6867;50.998;4.250;2022-09-30T01:11:59;13.77;;;8.60;;
13592;SDS011;6867;50.998;4.250;2022-09-30T01:14:29;15.10;;;9.40;;
13592;SDS011;6867;50.998;4.250;2022-09-30T01:17:00;16.07;;;11.13;;
13592;SDS011;6867;50.998;4.250;2022-09-30T01:19:40;16.97;;;11.33;;
13592;SDS011;6867;50.998;4.250;2022-09-30T01:22:32;15.03;;;11.10;;
13592;SDS011;6867;50.998;4.250;2022-09-30T01:25:11;19.23;;;11.73;;
13592;SDS011;6867;50.998;4.250;2022-09-30T01:27:59;17.33;;;11.43;;
13592;SDS011;6867;50.998;4.250;2022-09-30T01:30:47;17.57;;;10.50;;
13592;SDS011;6867;50.998;4.250;2022-09-30T01:33:32;16.57;;;10.63;;
13592;SDS011;6867;50.998;4.250;2022-09-30T01:36:14;18.80;;;11.40;;
13592;SDS011;6867;50.998;4.250;2022-09-30T01:38:51;14.57;;;10.70;;
13592;SDS011;6867;50.998;4.250;2022-09-30T01:41:29;18.33;;;10.77;;
13592;SDS011;6867;50.998;4.250;2022-09-30T01:44:08;17.97;;;11.53;;
13592;SDS011;6867;50.998;4.250;2022-09-30T01:46:44;18.97;;;11.57;;
13592;SDS011;6867;50.998;4.250;2022-09-30T01:49:19;18.80;;;12.40;;
13592;SDS011;6867;50.998;4.250;2022-09-30T01:51:54;23.47;;;11.13;;
13592;SDS011;6867;50.998;4.250;2022-09-30T01:54:31;15.87;;;10.53;;
13592;SDS011;6867;50.998;4.250;2022-09-30T01:57:05;17.13;;;9.93;;
13592;SDS011;6867;50.998;4.250;2022-09-30T01:59:36;15.73;;;10.60;;
13592;SDS011;6867;50.998;4.250;2022-09-30T02:02:11;16.80;;;10.77;;
13592;SDS011;6867;50.998;4.250;2022-09-30T02:04:44;18.57;;;12.20;;
13592;SDS011;6867;50.998;4.250;2022-09-30T02:07:18;17.70;;;12.07;;
13592;SDS011;6867;50.998;4.250;2022-09-30T02:09:51;17.73;;;11.47;;
13592;SDS011;6867;50.998;4.250;2022-09-30T02:12:23;16.23;;;11.40;;
13592;SDS011;6867;50.998;4.250;2022-09-30T02:14:57;19.87;;;11.33;;
13592;SDS011;6867;50.998;4.250;2022-09-30T02:17:30;16.93;;;11.37;;
13592;SDS011;6867;50.998;4.250;2022-09-30T02:20:03;22.23;;;12.13;;
13592;SDS011;6867;50.998;4.250;2022-09-30T02:22:34;16.87;;;11.20;;
13592;SDS011;6867;50.998;4.250;2022-09-30T02:25:07;16.57;;;11.40;;
13592;SDS011;6867;50.998;4.250;2022-09-30T02:27:38;14.60;;;10.83;;
13592;SDS011;6867;50.998;4.250;2022-09-30T02:30:10;19.10;;;12.27;;
13592;SDS011;6867;50.998;4.250;2022-09-30T02:32:41;18.00;;;10.87;;
13592;SDS011;6867;50.998;4.250;2022-09-30T02:35:13;15.53;;;10.50;;
13592;SDS011;6867;50.998;4.250;2022-09-30T02:37:44;17.00;;;10.80;;
13592;SDS011;6867;50.998;4.250;2022-09-30T02:40:17;15.73;;;10.43;;
13592;SDS011;6867;50.998;4.250;2022-09-30T02:42:47;18.43;;;11.93;;
13592;SDS011;6867;50.998;4.250;2022-09-30T02:45:14;17.03;;;10.90;;
13592;SDS011;6867;50.998;4.250;2022-09-30T02:47:47;18.40;;;12.40;;
13592;SDS011;6867;50.998;4.250;2022-09-30T02:50:28;17.27;;;10.83;;
13592;SDS011;6867;50.998;4.250;2022-09-30T02:53:03;17.07;;;12.00;;
13592;SDS011;6867;50.998;4.250;2022-09-30T02:55:41;14.70;;;10.33;;
13592;SDS011;6867;50.998;4.250;2022-09-30T02:58:15;12.63;;;9.47;;
13592;SDS011;6867;50.998;4.250;2022-09-30T03:00:44;19.03;;;11.10;;
13592;SDS011;6867;50.998;4.250;2022-09-30T03:03:14;16.00;;;11.20;;
13592;SDS011;6867;50.998;4.250;2022-09-30T03:05:45;21.40;;;13.50;;
13592;SDS011;6867;50.998;4.250;2022-09-30T03:08:14;17.53;;;12.37;;
13592;SDS011;6867;50.998;4.250;2022-09-30T03:10:41;17.93;;;12.30;;
13592;SDS011;6867;50.998;4.250;2022-09-30T03:13:11;16.93;;;11.73;;
13592;SDS011;6867;50.998;4.250;2022-09-30T03:15:52;16.40;;;11.10;;
13592;SDS011;6867;50.998;4.250;2022-09-30T03:18:32;16.20;;;11.57;;
13592;SDS011;6867;50.998;4.250;2022-09-30T03:21:12;16.70;;;12.00;;
13592;SDS011;6867;50.998;4.250;2022-09-30T03:24:02;18.87;;;13.67;;
13592;SDS011;6867;50.998;4.250;2022-09-30T03:26:43;20.03;;;13.67;;
13592;SDS011;6867;50.998;4.250;2022-09-30T03:29:18;21.30;;;14.27;;
13592;SDS011;6867;50.998;4.250;2022-09-30T03:31:54;19.50;;;12.57;;
13592;SDS011;6867;50.998;4.250;2022-09-30T03:34:30;23.67;;;15.03;;
13592;SDS011;6867;50.998;4.250;2022-09-30T03:37:03;21.33;;;14.43;;
13592;SDS011;6867;50.998;4.250;2022-09-30T03:39:45;22.03;;;15.03;;
13592;SDS011;6867;50.998;4.250;2022-09-30T03:42:21;19.60;;;12.97;;
13592;SDS011;6867;50.998;4.250;2022-09-30T03:44:55;23.70;;;15.10;;
13592;SDS011;6867;50.998;4.250;2022-09-30T03:47:27;22.30;;;15.43;;
13592;SDS011;6867;50.998;4.250;2022-09-30T03:49:59;22.13;;;13.73;;
13592;SDS011;6867;50.998;4.250;2022-09-30T03:52:29;23.03;;;15.17;;
13592;SDS011;6867;50.998;4.250;2022-09-30T03:54:58;22.57;;;14.70;;
13592;SDS011;6867;50.998;4.250;2022-09-30T03:57:27;19.00;;;13.27;;
13592;SDS011;6867;50.998;4.250;2022-09-30T03:59:55;22.23;;;14.53;;
13592;SDS011;6867;50.998;4.250;2022-09-30T04:02:23;25.00;;;15.07;;
13592;SDS011;6867;50.998;4.250;2022-09-30T04:04:50;24.23;;;15.37;;
13592;SDS011;6867;50.998;4.250;2022-09-30T04:07:18;24.50;;;15.50;;
13592;SDS011;6867;50.998;4.250;2022-09-30T04:09:45;25.27;;;15.47;;
13592;SDS011;6867;50.998;4.250;2022-09-30T04:12:11;25.07;;;15.00;;
13592;SDS011;6867;50.998;4.250;2022-09-30T04:14:38;23.73;;;14.63;;
13592;SDS011;6867;50.998;4.250;2022-09-30T04:17:05;24.37;;;15.50;;
13592;SDS011;6867;50.998;4.250;2022-09-30T04:19:32;23.53;;;14.87;;
13592;SDS011;6867;50.998;4.250;2022-09-30T04:22:02;22.13;;;15.20;;
13592;SDS011;6867;50.998;4.250;2022-09-30T04:24:30;26.07;;;15.27;;
13592;SDS011;6867;50.998;4.250;2022-09-30T04:26:57;25.10;;;14.67;;
13592;SDS011;6867;50.998;4.250;2022-09-30T04:29:23;22.07;;;14.27;;
13592;SDS011;6867;50.998;4.250;2022-09-30T04:31:50;23.80;;;15.23;;
13592;SDS011;6867;50.998;4.250;2022-09-30T04:34:17;23.20;;;14.53;;
13592;SDS011;6867;50.998;4.250;2022-09-30T04:36:44;26.17;;;15.63;;
13592;SDS011;6867;50.998;4.250;2022-09-30T04:39:10;25.87;;;15.83;;
13592;SDS011;6867;50.998;4.250;2022-09-30T04:41:38;23.60;;;14.03;;
13592;SDS011;6867;50.998;4.250;2022-09-30T04:44:05;22.63;;;14.53;;
13592;SDS011;6867;50.998;4.250;2022-09-30T04:46:32;26.90;;;15.57;;
13592;SDS011;6867;50.998;4.250;2022-09-30T04:49:01;23.80;;;15.20;;
13592;SDS011;6867;50.998;4.250;2022-09-30T04:51:28;26.63;;;15.53;;
13592;SDS011;6867;50.998;4.250;2022-09-30T04:53:54;21.40;;;15.07;;
13592;SDS011;6867;50.998;4.250;2022-09-30T04:56:21;24.60;;;14.50;;
13592;SDS011;6867;50.998;4.250;2022-09-30T04:58:51;25.43;;;14.37;;
13592;SDS011;6867;50.998;4.250;2022-09-30T05:01:18;22.60;;;14.23;;
13592;SDS011;6867;50.998;4.250;2022-09-30T05:03:45;24.27;;;14.93;;
13592;SDS011;6867;50.998;4.250;2022-09-30T05:06:13;21.43;;;14.40;;
13592;SDS011;6867;50.998;4.250;2022-09-30T05:08:40;21.80;;;14.17;;
13592;SDS011;6867;50.998;4.250;2022-09-30T05:11:09;21.87;;;12.87;;
13592;SDS011;6867;50.998;4.250;2022-09-30T05:13:39;22.20;;;12.73;;
13592;SDS011;6867;50.998;4.250;2022-09-30T05:16:08;21.97;;;14.67;;
13592;SDS011;6867;50.998;4.250;2022-09-30T05:18:35;22.97;;;14.67;;
13592;SDS011;6867;50.998;4.250;2022-09-30T05:21:03;21.57;;;13.73;;
13592;SDS011;6867;50.998;4.250;2022-09-30T05:23:30;21.00;;;13.57;;
13592;SDS011;6867;50.998;4.250;2022-09-30T05:25:58;22.90;;;13.47;;
13592;SDS011;6867;50.998;4.250;2022-09-30T05:28:25;20.53;;;13.53;;
13592;SDS011;6867;50.998;4.250;2022-09-30T05:30:54;25.83;;;15.13;;
13592;SDS011;6867;50.998;4.250;2022-09-30T05:33:24;22.67;;;13.47;;
13592;SDS011;6867;50.998;4.250;2022-09-30T05:35:53;22.90;;;14.40;;
13592;SDS011;6867;50.998;4.250;2022-09-30T05:38:20;19.67;;;13.03;;
13592;SDS011;6867;50.998;4.250;2022-09-30T05:40:46;35.70;;;12.93;;
13592;SDS011;6867;50.998;4.250;2022-09-30T05:43:13;21.63;;;12.27;;
13592;SDS011;6867;50.998;4.250;2022-09-30T05:45:40;18.03;;;11.03;;
13592;SDS011;6867;50.998;4.250;2022-09-30T05:48:06;18.53;;;12.23;;
13592;SDS011;6867;50.998;4.250;2022-09-30T05:50:35;19.00;;;11.43;;
13592;SDS011;6867;50.998;4.250;2022-09-30T05:53:01;17.47;;;12.47;;
13592;SDS011;6867;50.998;4.250;2022-09-30T05:55:28;17.60;;;11.30;;
13592;SDS011;6867;50.998;4.250;2022-09-30T05:57:55;21.47;;;13.67;;
13592;SDS011;6867;50.998;4.250;2022-09-30T06:00:22;25.07;;;16.23;;
13592;SDS011;6867;50.998;4.250;2022-09-30T06:02:51;22.83;;;14.27;;
13592;SDS011;6867;50.998;4.250;2022-09-30T06:05:21;30.13;;;17.17;;
13592;SDS011;6867;50.998;4.250;2022-09-30T06:07:49;24.67;;;15.43;;
13592;SDS011;6867;50.998;4.250;2022-09-30T06:10:15;26.57;;;16.13;;
13592;SDS011;6867;50.998;4.250;2022-09-30T06:12:42;30.97;;;17.83;;
13592;SDS011;6867;50.998;4.250;2022-09-30T06:15:09;31.17;;;19.10;;
13592;SDS011;6867;50.998;4.250;2022-09-30T06:17:36;31.63;;;19.50;;
13592;SDS011;6867;50.998;4.250;2022-09-30T06:20:03;33.40;;;21.00;;
13592;SDS011;6867;50.998;4.250;2022-09-30T06:22:31;34.83;;;20.13;;
13592;SDS011;6867;50.998;4.250;2022-09-30T06:25:02;36.60;;;21.47;;
13592;SDS011;6867;50.998;4.250;2022-09-30T06:27:29;33.73;;;20.10;;
13592;SDS011;6867;50.998;4.250;2022-09-30T06:29:58;37.13;;;22.57;;
13592;SDS011;6867;50.998;4.250;2022-09-30T06:32:25;42.50;;;21.47;;
13592;SDS011;6867;50.998;4.250;2022-09-30T06:34:51;33.63;;;21.33;;
13592;SDS011;6867;50.998;4.250;2022-09-30T06:37:19;38.97;;;22.67;;
13592;SDS011;6867;50.998;4.250;2022-09-30T06:39:46;39.17;;;23.07;;
13592;SDS011;6867;50.998;4.250;2022-09-30T06:42:14;34.07;;;21.50;;
13592;SDS011;6867;50.998;4.250;2022-09-30T06:44:41;38.83;;;24.37;;
13592;SDS011;6867;50.998;4.250;2022-09-30T06:47:09;40.93;;;23.70;;
13592;SDS011;6867;50.998;4.250;2022-09-30T06:49:35;36.43;;;22.80;;
13592;SDS011;6867;50.998;4.250;2022-09-30T06:52:02;37.10;;;22.67;;
13592;SDS011;6867;50.998;4.250;2022-09-30T06:54:29;39.07;;;23.53;;
13592;SDS011;6867;50.998;4.250;2022-09-30T06:56:55;44.43;;;24.87;;
13592;SDS011;6867;50.998;4.250;2022-09-30T06:59:23;43.93;;;25.83;;
13592;SDS011;6867;50.998;4.250;2022-09-30T07:01:50;36.53;;;23.17;;
13592;SDS011;6867;50.998;4.250;2022-09-30T07:04:17;46.40;;;25.37;;
13592;SDS011;6867;50.998;4.250;2022-09-30T07:06:44;42.57;;;25.30;;
13592;SDS011;6867;50.998;4.250;2022-09-30T07:09:11;40.70;;;25.00;;
13592;SDS011;6867;50.998;4.250;2022-09-30T07:11:38;44.77;;;25.33;;
13592;SDS011;6867;50.998;4.250;2022-09-30T07:14:05;40.33;;;23.63;;
13592;SDS011;6867;50.998;4.250;2022-09-30T07:16:33;43.07;;;25.23;;
13592;SDS011;6867;50.998;4.250;2022-09-30T07:19:00;42.60;;;25.53;;
13592;SDS011;6867;50.998;4.250;2022-09-30T07:21:27;43.37;;;26.00;;
13592;SDS011;6867;50.998;4.250;2022-09-30T07:23:55;49.07;;;26.70;;
13592;SDS011;6867;50.998;4.250;2022-09-30T07:26:24;44.23;;;25.30;;
13592;SDS011;6867;50.998;4.250;2022-09-30T07:28:52;41.73;;;25.30;;
13592;SDS011;6867;50.998;4.250;2022-09-30T07:31:19;35.73;;;23.77;;
13592;SDS011;6867;50.998;4.250;2022-09-30T07:33:49;38.13;;;22.80;;
13592;SDS011;6867;50.998;4.250;2022-09-30T07:36:17;37.87;;;23.60;;
13592;SDS011;6867;50.998;4.250;2022-09-30T07:38:47;40.87;;;24.57;;
13592;SDS011;6867;50.998;4.250;2022-09-30T07:41:16;40.20;;;23.90;;
13592;SDS011;6867;50.998;4.250;2022-09-30T07:43:46;47.77;;;25.30;;
13592;SDS011;6867;50.998;4.250;2022-09-30T07:46:13;40.10;;;25.33;;
13592;SDS011;6867;50.998;4.250;2022-09-30T07:48:44;39.40;;;25.07;;
13592;SDS011;6867;50.998;4.250;2022-09-30T07:51:17;40.20;;;24.70;;
13592;SDS011;6867;50.998;4.250;2022-09-30T07:53:46;39.87;;;24.37;;
13592;SDS011;6867;50.998;4.250;2022-09-30T07:56:14;40.93;;;24.37;;
13592;SDS011;6867;50.998;4.250;2022-09-30T07:58:41;40.53;;;23.63;;
13592;SDS011;6867;50.998;4.250;2022-09-30T08:01:09;40.47;;;24.17;;
13592;SDS011;6867;50.998;4.250;2022-09-30T08:03:37;41.27;;;24.73;;
13592;SDS011;6867;50.998;4.250;2022-09-30T08:06:06;42.97;;;24.77;;
13592;SDS011;6867;50.998;4.250;2022-09-30T08:08:36;38.70;;;23.07;;
13592;SDS011;6867;50.998;4.250;2022-09-30T08:11:03;32.43;;;20.37;;
13592;SDS011;6867;50.998;4.250;2022-09-30T08:13:31;32.77;;;21.03;;
13592;SDS011;6867;50.998;4.250;2022-09-30T08:15:58;39.73;;;22.40;;
13592;SDS011;6867;50.998;4.250;2022-09-30T08:18:25;35.30;;;20.87;;
13592;SDS011;6867;50.998;4.250;2022-09-30T08:20:52;36.20;;;20.73;;
13592;SDS011;6867;50.998;4.250;2022-09-30T08:23:19;42.07;;;21.00;;
13592;SDS011;6867;50.998;4.250;2022-09-30T08:25:47;33.27;;;20.70;;
13592;SDS011;6867;50.998;4.250;2022-09-30T08:28:14;34.13;;;20.03;;
13592;SDS011;6867;50.998;4.250;2022-09-30T08:30:41;31.53;;;19.53;;
13592;SDS011;6867;50.998;4.250;2022-09-30T08:33:08;33.00;;;19.53;;
13592;SDS011;6867;50.998;4.250;2022-09-30T08:35:35;33.03;;;19.80;;
13592;SDS011;6867;50.998;4.250;2022-09-30T08:38:01;31.13;;;19.03;;
13592;SDS011;6867;50.998;4.250;2022-09-30T08:40:30;32.90;;;18.27;;
13592;SDS011;6867;50.998;4.250;2022-09-30T08:45:54;31.40;;;18.97;;
13592;SDS011;6867;50.998;4.250;2022-09-30T08:48:36;27.77;;;16.90;;
13592;SDS011;6867;50.998;4.250;2022-09-30T08:51:16;30.90;;;17.77;;
13592;SDS011;6867;50.998;4.250;2022-09-30T08:53:56;29.80;;;17.33;;
13592;SDS011;6867;50.998;4.250;2022-09-30T08:56:25;34.13;;;19.73;;
13592;SDS011;6867;50.998;4.250;2022-09-30T08:58:57;30.03;;;19.30;;
13592;SDS011;6867;50.998;4.250;2022-09-30T09:01:29;28.83;;;18.57;;
13592;SDS011;6867;50.998;4.250;2022-09-30T09:03:59;28.83;;;17.40;;
13592;SDS011;6867;50.998;4.250;2022-09-30T09:06:29;26.60;;;17.23;;
13592;SDS011;6867;50.998;4.250;2022-09-30T09:09:04;28.90;;;16.43;;
13592;SDS011;6867;50.998;4.250;2022-09-30T09:11:48;30.57;;;16.83;;
13592;SDS011;6867;50.998;4.250;2022-09-30T09:14:27;28.60;;;16.17;;
13592;SDS011;6867;50.998;4.250;2022-09-30T09:17:07;32.40;;;16.13;;
13592;SDS011;6867;50.998;4.250;2022-09-30T09:19:41;29.80;;;16.60;;
13592;SDS011;6867;50.998;4.250;2022-09-30T09:22:12;31.60;;;17.27;;
13592;SDS011;6867;50.998;4.250;2022-09-30T09:24:39;26.93;;;17.33;;
13592;SDS011;6867;50.998;4.250;2022-09-30T09:27:15;29.13;;;18.27;;
13592;SDS011;6867;50.998;4.250;2022-09-30T09:29:51;23.37;;;14.33;;
13592;SDS011;6867;50.998;4.250;2022-09-30T09:32:26;18.00;;;12.13;;
13592;SDS011;6867;50.998;4.250;2022-09-30T09:34:56;20.97;;;11.87;;
13592;SDS011;6867;50.998;4.250;2022-09-30T09:37:28;15.90;;;10.47;;
13592;SDS011;6867;50.998;4.250;2022-09-30T09:40:21;21.00;;;11.23;;
13592;SDS011;6867;50.998;4.250;2022-09-30T09:43:02;14.60;;;10.27;;
13592;SDS011;6867;50.998;4.250;2022-09-30T09:45:40;14.00;;;8.90;;
13592;SDS011;6867;50.998;4.250;2022-09-30T09:48:12;16.87;;;10.87;;
13592;SDS011;6867;50.998;4.250;2022-09-30T09:50:44;20.67;;;11.03;;
13592;SDS011;6867;50.998;4.250;2022-09-30T09:53:28;18.93;;;11.37;;
13592;SDS011;6867;50.998;4.250;2022-09-30T09:56:09;17.87;;;11.20;;
13592;SDS011;6867;50.998;4.250;2022-09-30T10:01:35;15.57;;;11.10;;
13592;SDS011;6867;50.998;4.250;2022-09-30T10:04:11;20.17;;;11.47;;
13592;SDS011;6867;50.998;4.250;2022-09-30T10:06:45;15.60;;;10.80;;
13592;SDS011;6867;50.998;4.250;2022-09-30T10:09:23;16.80;;;10.60;;
13592;SDS011;6867;50.998;4.250;2022-09-30T10:14:47;18.00;;;11.37;;
13592;SDS011;6867;50.998;4.250;2022-09-30T10:17:19;20.95;;;11.45;;
13592;SDS011;6867;50.998;4.250;2022-09-30T10:19:51;19.70;;;9.85;;
13592;SDS011;6867;50.998;4.250;2022-09-30T10:22:23;17.48;;;9.98;;
13592;SDS011;6867;50.998;4.250;2022-09-30T10:24:59;14.25;;;9.77;;
13592;SDS011;6867;50.998;4.250;2022-09-30T10:27:35;10.88;;;9.00;;
13592;SDS011;6867;50.998;4.250;2022-09-30T10:30:03;13.52;;;8.77;;
13592;SDS011;6867;50.998;4.250;2022-09-30T10:32:32;11.10;;;8.45;;
13592;SDS011;6867;50.998;4.250;2022-09-30T10:35:00;12.82;;;8.98;;
13592;SDS011;6867;50.998;4.250;2022-09-30T10:37:30;9.52;;;6.60;;
13592;SDS011;6867;50.998;4.250;2022-09-30T10:39:57;8.95;;;7.05;;
13592;SDS011;6867;50.998;4.250;2022-09-30T10:42:28;9.10;;;6.72;;
13592;SDS011;6867;50.998;4.250;2022-09-30T10:44:57;8.23;;;6.20;;
13592;SDS011;6867;50.998;4.250;2022-09-30T10:47:28;10.18;;;5.80;;
13592;SDS011;6867;50.998;4.250;2022-09-30T10:49:58;6.32;;;5.53;;
13592;SDS011;6867;50.998;4.250;2022-09-30T10:52:29;7.45;;;4.72;;
13592;SDS011;6867;50.998;4.250;2022-09-30T10:54:59;9.00;;;5.50;;
13592;SDS011;6867;50.998;4.250;2022-09-30T10:57:30;9.35;;;5.25;;
13592;SDS011;6867;50.998;4.250;2022-09-30T10:59:59;7.28;;;5.00;;
13592;SDS011;6867;50.998;4.250;2022-09-30T11:02:30;7.43;;;4.93;;
13592;SDS011;6867;50.998;4.250;2022-09-30T11:05:06;6.53;;;4.60;;
13592;SDS011;6867;50.998;4.250;2022-09-30T11:07:44;8.15;;;5.07;;
13592;SDS011;6867;50.998;4.250;2022-09-30T11:10:23;6.15;;;5.00;;
13592;SDS011;6867;50.998;4.250;2022-09-30T11:12:59;6.10;;;4.30;;
13592;SDS011;6867;50.998;4.250;2022-09-30T11:15:30;6.75;;;4.88;;
13592;SDS011;6867;50.998;4.250;2022-09-30T11:18:03;7.22;;;4.93;;
13592;SDS011;6867;50.998;4.250;2022-09-30T11:20:36;6.00;;;4.10;;
13592;SDS011;6867;50.998;4.250;2022-09-30T11:23:10;7.82;;;5.20;;
13592;SDS011;6867;50.998;4.250;2022-09-30T11:25:45;8.07;;;4.70;;
13592;SDS011;6867;50.998;4.250;2022-09-30T11:28:25;6.88;;;4.38;;
13592;SDS011;6867;50.998;4.250;2022-09-30T11:31:06;6.85;;;5.20;;
13592;SDS011;6867;50.998;4.250;2022-09-30T11:33:51;6.45;;;5.38;;
13592;SDS011;6867;50.998;4.250;2022-09-30T11:36:31;6.80;;;5.43;;
13592;SDS011;6867;50.998;4.250;2022-09-30T11:39:19;7.18;;;5.07;;
13592;SDS011;6867;50.998;4.250;2022-09-30T11:42:09;4.90;;;4.45;;
13592;SDS011;6867;50.998;4.250;2022-09-30T11:44:44;7.35;;;5.00;;
13592;SDS011;6867;50.998;4.250;2022-09-30T11:47:21;7.05;;;5.03;;
13592;SDS011;6867;50.998;4.250;2022-09-30T11:50:04;7.35;;;4.68;;
13592;SDS011;6867;50.998;4.250;2022-09-30T11:52:51;5.10;;;4.07;;
13592;SDS011;6867;50.998;4.250;2022-09-30T11:55:29;6.30;;;4.95;;
13592;SDS011;6867;50.998;4.250;2022-09-30T11:58:04;4.78;;;4.35;;
13592;SDS011;6867;50.998;4.250;2022-09-30T12:00:34;6.70;;;4.15;;
13592;SDS011;6867;50.998;4.250;2022-09-30T12:03:06;5.22;;;4.43;;
13592;SDS011;6867;50.998;4.250;2022-09-30T12:05:39;6.00;;;4.05;;
13592;SDS011;6867;50.998;4.250;2022-09-30T12:08:11;6.63;;;3.72;;
13592;SDS011;6867;50.998;4.250;2022-09-30T12:10:42;5.32;;;4.28;;
13592;SDS011;6867;50.998;4.250;2022-09-30T12:13:15;5.93;;;4.60;;
13592;SDS011;6867;50.998;4.250;2022-09-30T12:15:46;4.97;;;4.40;;
13592;SDS011;6867;50.998;4.250;2022-09-30T12:18:18;7.18;;;4.80;;
13592;SDS011;6867;50.998;4.250;2022-09-30T12:20:48;6.55;;;4.03;;
13592;SDS011;6867;50.998;4.250;2022-09-30T12:23:19;5.68;;;4.50;;
13592;SDS011;6867;50.998;4.250;2022-09-30T12:25:53;6.45;;;4.13;;
13592;SDS011;6867;50.998;4.250;2022-09-30T12:28:24;4.45;;;3.85;;
13592;SDS011;6867;50.998;4.250;2022-09-30T12:31:20;5.10;;;3.65;;
13592;SDS011;6867;50.998;4.250;2022-09-30T12:34:05;5.65;;;3.85;;
13592;SDS011;6867;50.998;4.250;2022-09-30T12:36:51;4.05;;;3.65;;
13592;SDS011;6867;50.998;4.250;2022-09-30T12:39:42;4.13;;;3.72;;
13592;SDS011;6867;50.998;4.250;2022-09-30T12:42:33;9.00;;;4.50;;
13592;SDS011;6867;50.998;4.250;2022-09-30T12:45:30;5.90;;;3.75;;
13592;SDS011;6867;50.998;4.250;2022-09-30T12:48:09;5.28;;;4.35;;
13592;SDS011;6867;50.998;4.250;2022-09-30T12:50:41;7.18;;;4.50;;
13592;SDS011;6867;50.998;4.250;2022-09-30T12:53:11;5.72;;;4.57;;
13592;SDS011;6867;50.998;4.250;2022-09-30T12:55:44;5.43;;;4.38;;
13592;SDS011;6867;50.998;4.250;2022-09-30T12:58:17;5.13;;;4.53;;
13592;SDS011;6867;50.998;4.250;2022-09-30T13:00:57;5.68;;;4.40;;
13592;SDS011;6867;50.998;4.250;2022-09-30T13:03:27;7.20;;;4.10;;
13592;SDS011;6867;50.998;4.250;2022-09-30T13:06:08;5.28;;;4.00;;
13592;SDS011;6867;50.998;4.250;2022-09-30T13:08:40;4.35;;;3.95;;
13592;SDS011;6867;50.998;4.250;2022-09-30T13:11:30;4.35;;;3.95;;
13592;SDS011;6867;50.998;4.250;2022-09-30T13:14:10;4.80;;;3.90;;
13592;SDS011;6867;50.998;4.250;2022-09-30T13:17:01;5.57;;;4.13;;
13592;SDS011;6867;50.998;4.250;2022-09-30T13:19:48;7.53;;;4.22;;
13592;SDS011;6867;50.998;4.250;2022-09-30T13:25:22;4.43;;;3.70;;
13592;SDS011;6867;50.998;4.250;2022-09-30T13:27:51;6.50;;;3.63;;
13592;SDS011;6867;50.998;4.250;2022-09-30T13:30:38;3.83;;;3.22;;
13592;SDS011;6867;50.998;4.250;2022-09-30T13:36:14;4.00;;;3.45;;
13592;SDS011;6867;50.998;4.250;2022-09-30T13:38:44;3.88;;;3.55;;
13592;SDS011;6867;50.998;4.250;2022-09-30T13:41:13;4.40;;;3.60;;
13592;SDS011;6867;50.998;4.250;2022-09-30T13:43:55;4.60;;;3.53;;
13592;SDS011;6867;50.998;4.250;2022-09-30T13:46:28;4.10;;;3.20;;
13592;SDS011;6867;50.998;4.250;2022-09-30T13:49:01;6.43;;;3.15;;
13592;SDS011;6867;50.998;4.250;2022-09-30T13:51:32;5.93;;;3.08;;
13592;SDS011;6867;50.998;4.250;2022-09-30T13:54:01;3.85;;;2.85;;
13592;SDS011;6867;50.998;4.250;2022-09-30T13:56:33;3.75;;;2.65;;
13592;SDS011;6867;50.998;4.250;2022-09-30T14:02:02;5.28;;;2.50;;
13592;SDS011;6867;50.998;4.250;2022-09-30T14:04:51;3.53;;;2.53;;
13592;SDS011;6867;50.998;4.250;2022-09-30T14:07:34;2.45;;;2.22;;
13592;SDS011;6867;50.998;4.250;2022-09-30T14:10:17;2.97;;;2.47;;
13592;SDS011;6867;50.998;4.250;2022-09-30T14:12:58;4.95;;;2.33;;
13592;SDS011;6867;50.998;4.250;2022-09-30T14:15:42;2.63;;;2.28;;
13592;SDS011;6867;50.998;4.250;2022-09-30T14:21:28;4.03;;;2.10;;
13592;SDS011;6867;50.998;4.250;2022-09-30T14:24:00;5.20;;;3.20;;
13592;SDS011;6867;50.998;4.250;2022-09-30T14:26:42;3.25;;;2.33;;
13592;SDS011;6867;50.998;4.250;2022-09-30T14:29:21;2.38;;;2.17;;
13592;SDS011;6867;50.998;4.250;2022-09-30T14:31:58;5.55;;;3.15;;
13592;SDS011;6867;50.998;4.250;2022-09-30T14:34:25;3.50;;;2.88;;
13592;SDS011;6867;50.998;4.250;2022-09-30T14:36:53;3.13;;;2.45;;
13592;SDS011;6867;50.998;4.250;2022-09-30T14:39:22;6.18;;;2.78;;
13592;SDS011;6867;50.998;4.250;2022-09-30T14:41:54;4.82;;;2.63;;
13592;SDS011;6867;50.998;4.250;2022-09-30T14:44:23;3.20;;;2.60;;
13592;SDS011;6867;50.998;4.250;2022-09-30T14:46:54;3.53;;;1.95;;
13592;SDS011;6867;50.998;4.250;2022-09-30T14:49:27;5.32;;;2.45;;
13592;SDS011;6867;50.998;4.250;2022-09-30T14:51:58;4.88;;;2.40;;
13592;SDS011;6867;50.998;4.250;2022-09-30T14:54:28;3.20;;;2.67;;
13592;SDS011;6867;50.998;4.250;2022-09-30T14:56:56;5.47;;;2.80;;
13592;SDS011;6867;50.998;4.250;2022-09-30T14:59:25;3.97;;;3.15;;
13592;SDS011;6867;50.998;4.250;2022-09-30T15:01:55;5.82;;;3.08;;
13592;SDS011;6867;50.998;4.250;2022-09-30T15:04:27;4.70;;;2.33;;
13592;SDS011;6867;50.998;4.250;2022-09-30T15:06:56;2.92;;;2.50;;
13592;SDS011;6867;50.998;4.250;2022-09-30T15:09:26;2.90;;;2.42;;
13592;SDS011;6867;50.998;4.250;2022-09-30T15:11:56;3.38;;;2.47;;
13592;SDS011;6867;50.998;4.250;2022-09-30T15:14:28;3.33;;;2.65;;
13592;SDS011;6867;50.998;4.250;2022-09-30T15:16:56;4.10;;;2.60;;
13592;SDS011;6867;50.998;4.250;2022-09-30T15:19:24;4.47;;;2.50;;
13592;SDS011;6867;50.998;4.250;2022-09-30T15:21:54;2.47;;;2.10;;
13592;SDS011;6867;50.998;4.250;2022-09-30T15:24:23;2.83;;;2.28;;
13592;SDS011;6867;50.998;4.250;2022-09-30T15:26:55;4.05;;;2.70;;
13592;SDS011;6867;50.998;4.250;2022-09-30T15:29:22;5.70;;;3.40;;
13592;SDS011;6867;50.998;4.250;2022-09-30T15:31:51;3.40;;;2.08;;
13592;SDS011;6867;50.998;4.250;2022-09-30T15:34:25;2.63;;;2.30;;
13592;SDS011;6867;50.998;4.250;2022-09-30T15:36:55;3.28;;;2.50;;